Crete, Indiana
Current Conditions -  °F | °C
As of 7:15 AM on Saturday 25 Oct 2014 (Local Time) from KVES Reporting Station
Overcast Overcast  
Wind Chill: 50°   Ceiling: 3900
Heat Index: 50°   Visibility: 10mi
Dew Point: 50°   Wind: 5mph
Humidity: 100%   Direction: 210°SSW
Pressure: 29.95"   Gusts: NA
Location:  40.0606°N, 84.9258°W
Report Text: KVES 251115Z AUTO 21004KT 10SM BKN039 OVC050 10/10 A2995 RMK AO2
Loading
Personal Weather Stations






























Interactive Weather Map
Tropical Storm Tracking
New forecast layout! Learn more

10-Day Weather Forecast

Advertisements
Track Severe Weather on mobile